^^
Datos históricos de la estación: Murcia-Puente Tocinos
Diario Informe para Marzo 7, 2019 Unidades:  Ambas    Inglés   Métrico
Diario Semanal Mensual Anual Configurable
  Máximo: Mínimo: Media:
Temperatura: 68.7 °F /  20.4 °C 55.2 °F /  12.9 °C 60.4 °F /  15.8 °C
Punto de rocio: 41.7 °F /  5.4 °C 30.6 °F /  -0.8 °C 36.7 °F /  2.6 °C
Humedad: 57% 26% 42%
Velocidad viento: 11.2mph /  18.0km/h - 5mph /  8.1km/h
Racha viento: 18.4mph /  29.6km/h - -
Viento- - SW
Presión: 30 in /  1016.9 hPa 29.9 in /  1012.2 hPa -
Precipitación: 0 in /  0.0 mm    
Historical Graphs
 
 
Tabla de datos para Marzo 7, 2019
Hora Temperatura Punto de rocio Presión Viento Velocidad viento Racha viento Humedad Intensidad lluvia(por hora) Nubes
00:00 61.9 °F /  16.6 °C 39 °F /  3.9 °C 29.9in /  1012.3hPa WSW 9mph /  14.5km/h 15mph /  24.1km/h 43% 0in /  0.0mm CLR
00:05 61.9 °F /  16.6 °C 38.5 °F /  3.6 °C 29.9in /  1012.5hPa WSW 8.7mph /  14.0km/h 13.8mph /  22.2km/h 42% 0in /  0.0mm CLR
00:10 61.7 °F /  16.5 °C 37.8 °F /  3.2 °C 29.9in /  1012.5hPa West 8.1mph /  13.0km/h 11.5mph /  18.5km/h 41% 0in /  0.0mm CLR
00:15 61.9 °F /  16.6 °C 37.2 °F /  2.9 °C 29.9in /  1012.5hPa SW 8.1mph /  13.0km/h 15.2mph /  24.5km/h 40% 0in /  0.0mm CLR
00:20 61.9 °F /  16.6 °C 37.9 °F /  3.3 °C 29.9in /  1012.5hPa SW 9.2mph /  14.8km/h 12.7mph /  20.4km/h 41% 0in /  0.0mm CLR
00:25 61.7 °F /  16.5 °C 37.8 °F /  3.2 °C 29.9in /  1012.5hPa WSW 9.2mph /  14.8km/h 12.7mph /  20.4km/h 41% 0in /  0.0mm CLR
00:30 61.5 °F /  16.4 °C 37.6 °F /  3.1 °C 29.9in /  1012.5hPa WNW 8.1mph /  13.0km/h 17.3mph /  27.8km/h 41% 0in /  0.0mm CLR
00:35 61.7 °F /  16.5 °C 38.5 °F /  3.6 °C 29.9in /  1012.4hPa SW 8.1mph /  13.0km/h 10.4mph /  16.7km/h 42% 0in /  0.0mm CLR
00:40 61.5 °F /  16.4 °C 38.1 °F /  3.4 °C 29.9in /  1012.4hPa WSW 8.7mph /  14.0km/h 11.5mph /  18.5km/h 42% 0in /  0.0mm CLR
00:45 61.3 °F /  16.3 °C 37.9 °F /  3.3 °C 29.9in /  1012.4hPa West 8.7mph /  14.0km/h 11.2mph /  18.0km/h 42% 0in /  0.0mm CLR
00:50 61.3 °F /  16.3 °C 37.9 °F /  3.3 °C 29.9in /  1012.3hPa SW 7.4mph /  11.9km/h 9.2mph /  14.8km/h 42% 0in /  0.0mm CLR
00:55 61.2 °F /  16.2 °C 37.2 °F /  2.9 °C 29.9in /  1012.3hPa SW 7.4mph /  11.9km/h 12.5mph /  20.1km/h 41% 0in /  0.0mm CLR
01:00 61.2 °F /  16.2 °C 37.2 °F /  2.9 °C 29.9in /  1012.3hPa WSW 8mph /  12.9km/h 13mph /  20.9km/h 41% 0in /  0.0mm CLR
01:05 61 °F /  16.1 °C 37 °F /  2.8 °C 29.9in /  1012.3hPa SSW 8.5mph /  13.7km/h 8.1mph /  13.0km/h 41% 0in /  0.0mm CLR
01:10 61 °F /  16.1 °C 37 °F /  2.8 °C 29.9in /  1012.3hPa SW 5.4mph /  8.7km/h 6.9mph /  11.1km/h 41% 0in /  0.0mm CLR
01:15 61 °F /  16.1 °C 36.5 °F /  2.5 °C 29.9in /  1012.3hPa SW 5.4mph /  8.7km/h 9.2mph /  14.8km/h 40% 0in /  0.0mm CLR
01:20 60.8 °F /  16.0 °C 36.9 °F /  2.7 °C 29.9in /  1012.2hPa SSW 5.4mph /  8.7km/h 6.9mph /  11.1km/h 41% 0in /  0.0mm CLR
01:25 60.6 °F /  15.9 °C 36.9 °F /  2.7 °C 29.9in /  1012.2hPa SW 5.4mph /  8.7km/h 6.9mph /  11.1km/h 41% 0in /  0.0mm CLR
01:30 60.6 °F /  15.9 °C 36.1 °F /  2.3 °C 29.9in /  1012.2hPa SSW 5.2mph /  8.4km/h 6.9mph /  11.1km/h 40% 0in /  0.0mm CLR
01:35 60.4 °F /  15.8 °C 36.7 °F /  2.6 °C 29.9in /  1012.3hPa WSW 5.2mph /  8.4km/h 3.5mph /  5.6km/h 41% 0in /  0.0mm CLR
01:40 60.4 °F /  15.8 °C 36 °F /  2.2 °C 29.9in /  1012.3hPa WSW 3.1mph /  5.0km/h 4.6mph /  7.4km/h 40% 0in /  0.0mm CLR
01:45 60.4 °F /  15.8 °C 35.2 °F /  1.8 °C 29.9in /  1012.3hPa SW 3.1mph /  5.0km/h 6.9mph /  11.1km/h 39% 0in /  0.0mm CLR
01:50 60.3 °F /  15.7 °C 35.8 °F /  2.1 °C 29.9in /  1012.4hPa SSE 3.6mph /  5.8km/h 5.8mph /  9.3km/h 40% 0in /  0.0mm CLR
01:55 60.1 °F /  15.6 °C 36.3 °F /  2.4 °C 29.9in /  1012.4hPa SSE 3.6mph /  5.8km/h 5.8mph /  9.3km/h 41% 0in /  0.0mm CLR
02:00 59.5 °F /  15.3 °C 35.8 °F /  2.1 °C 29.9in /  1012.4hPa SSE 5mph /  8.0km/h 7mph /  11.3km/h 41% 0in /  0.0mm CLR
02:05 59.2 °F /  15.1 °C 36.1 °F /  2.3 °C 29.9in /  1012.6hPa South 4mph /  6.4km/h 8.5mph /  13.7km/h 42% 0in /  0.0mm CLR
02:10 59.2 °F /  15.1 °C 35.4 °F /  1.9 °C 29.9in /  1012.6hPa South 5.4mph /  8.7km/h 6.9mph /  11.1km/h 41% 0in /  0.0mm CLR
02:15 59.2 °F /  15.1 °C 35.4 °F /  1.9 °C 29.9in /  1012.6hPa SSE 5.4mph /  8.7km/h 6.9mph /  11.1km/h 41% 0in /  0.0mm CLR
02:20 59.2 °F /  15.1 °C 35.4 °F /  1.9 °C 29.9in /  1012.6hPa South 5.2mph /  8.4km/h 6.9mph /  11.1km/h 41% 0in /  0.0mm CLR
02:25 59.2 °F /  15.1 °C 35.4 °F /  1.9 °C 29.9in /  1012.6hPa SSW 5.2mph /  8.4km/h 5.8mph /  9.3km/h 41% 0in /  0.0mm CLR
02:30 59.2 °F /  15.1 °C 35.4 °F /  1.9 °C 29.9in /  1012.6hPa SSE 4.3mph /  6.9km/h 3.6mph /  5.8km/h 41% 0in /  0.0mm CLR
02:35 59.2 °F /  15.1 °C 35.4 °F /  1.9 °C 29.9in /  1012.8hPa SSE 4.3mph /  6.9km/h 2.3mph /  3.7km/h 41% 0in /  0.0mm CLR
02:40 59.2 °F /  15.1 °C 36.1 °F /  2.3 °C 29.9in /  1012.8hPa NE 2mph /  3.2km/h 3.5mph /  5.6km/h 42% 0in /  0.0mm CLR
02:45 58.8 °F /  14.9 °C 35.8 °F /  2.1 °C 29.9in /  1012.8hPa NE 2mph /  3.2km/h 4.6mph /  7.4km/h 42% 0in /  0.0mm CLR
02:50 58.6 °F /  14.8 °C 35.6 °F /  2.0 °C 29.9in /  1012.8hPa SW 2mph /  3.2km/h 5.8mph /  9.3km/h 42% 0in /  0.0mm CLR
02:55 58.6 °F /  14.8 °C 35.6 °F /  2.0 °C 29.9in /  1012.8hPa WSW 2mph /  3.2km/h 6.9mph /  11.1km/h 42% 0in /  0.0mm CLR
03:00 58.8 °F /  14.9 °C 35.8 °F /  2.1 °C 29.9in /  1012.8hPa SW 5mph /  8.0km/h 8mph /  12.9km/h 42% 0in /  0.0mm CLR
03:05 58.8 °F /  14.9 °C 35.2 °F /  1.8 °C 29.9in /  1012.6hPa SW 4.7mph /  7.6km/h 9.2mph /  14.8km/h 41% 0in /  0.0mm CLR
03:10 58.8 °F /  14.9 °C 35.2 °F /  1.8 °C 29.9in /  1012.6hPa SW 5.4mph /  8.7km/h 8.1mph /  13.0km/h 41% 0in /  0.0mm CLR
03:15 58.8 °F /  14.9 °C 35.2 °F /  1.8 °C 29.9in /  1012.6hPa West 5.4mph /  8.7km/h 9.2mph /  14.8km/h 41% 0in /  0.0mm CLR
03:20 59.2 °F /  15.1 °C 35.4 °F /  1.9 °C 29.9in /  1012.5hPa WSW 5.2mph /  8.4km/h 11.5mph /  18.5km/h 41% 0in /  0.0mm CLR
03:25 59.4 °F /  15.2 °C 35.6 °F /  2.0 °C 29.9in /  1012.5hPa West 5.2mph /  8.4km/h 2.3mph /  3.7km/h 41% 0in /  0.0mm CLR
03:30 58.8 °F /  14.9 °C 35.8 °F /  2.1 °C 29.9in /  1012.5hPa East 3.1mph /  5.0km/h 8.1mph /  13.0km/h 42% 0in /  0.0mm CLR
03:35 57.9 °F /  14.4 °C 35.4 °F /  1.9 °C 29.9in /  1012.8hPa East 3.1mph /  5.0km/h 5.2mph /  8.4km/h 43% 0in /  0.0mm CLR
03:40 57.4 °F /  14.1 °C 35.6 °F /  2.0 °C 29.9in /  1012.8hPa ESE 4mph /  6.4km/h 4.6mph /  7.4km/h 44% 0in /  0.0mm CLR
03:45 57.4 °F /  14.1 °C 35.6 °F /  2.0 °C 29.9in /  1012.8hPa SE 4mph /  6.4km/h 4.6mph /  7.4km/h 44% 0in /  0.0mm CLR
03:50 57.4 °F /  14.1 °C 35.6 °F /  2.0 °C 29.9in /  1012.7hPa South 3.6mph /  5.8km/h 4.6mph /  7.4km/h 44% 0in /  0.0mm CLR
03:55 57.6 °F /  14.2 °C 35.8 °F /  2.1 °C 29.9in /  1012.7hPa SSW 3.6mph /  5.8km/h 4.6mph /  7.4km/h 44% 0in /  0.0mm CLR
04:00 57.7 °F /  14.3 °C 35.4 °F /  1.9 °C 29.9in /  1012.7hPa South 2mph /  3.2km/h 5mph /  8.0km/h 43% 0in /  0.0mm CLR
04:05 57.7 °F /  14.3 °C 36 °F /  2.2 °C 29.9in /  1012.8hPa SSW 2.9mph /  4.7km/h 2.3mph /  3.7km/h 44% 0in /  0.0mm CLR
04:10 57.6 °F /  14.2 °C 35.8 °F /  2.1 °C 29.9in /  1012.8hPa SSW 1.8mph /  2.9km/h 3.1mph /  5.0km/h 44% 0in /  0.0mm CLR
04:15 57.6 °F /  14.2 °C 35.2 °F /  1.8 °C 29.9in /  1012.8hPa SSW 1.8mph /  2.9km/h 4.7mph /  7.6km/h 43% 0in /  0.0mm CLR
04:20 57.7 °F /  14.3 °C 35.4 °F /  1.9 °C 29.9in /  1012.7hPa SW 2mph /  3.2km/h 4.6mph /  7.4km/h 43% 0in /  0.0mm CLR
04:25 57.9 °F /  14.4 °C 35.4 °F /  1.9 °C 29.9in /  1012.7hPa West 2mph /  3.2km/h 6.9mph /  11.1km/h 43% 0in /  0.0mm CLR
04:30 58.3 °F /  14.6 °C 36 °F /  2.2 °C 29.9in /  1012.7hPa WNW 4mph /  6.4km/h 6.9mph /  11.1km/h 43% 0in /  0.0mm CLR
04:35 58.3 °F /  14.6 °C 36 °F /  2.2 °C 29.9in /  1012.8hPa WNW 4mph /  6.4km/h 4.6mph /  7.4km/h 43% 0in /  0.0mm CLR
04:40 57.7 °F /  14.3 °C 36 °F /  2.2 °C 29.9in /  1012.8hPa WNW 4mph /  6.4km/h 4.6mph /  7.4km/h 44% 0in /  0.0mm CLR
04:45 57.4 °F /  14.1 °C 36.1 °F /  2.3 °C 29.9in /  1012.8hPa WNW 4mph /  6.4km/h 4.6mph /  7.4km/h 45% 0in /  0.0mm CLR
04:50 57 °F /  13.9 °C 36.3 °F /  2.4 °C 29.9in /  1012.9hPa WNW 2.4mph /  3.9km/h 3.5mph /  5.6km/h 46% 0in /  0.0mm CLR
04:55 56.5 °F /  13.6 °C 36.5 °F /  2.5 °C 29.9in /  1012.9hPa NNE 2.4mph /  3.9km/h 4.6mph /  7.4km/h 47% 0in /  0.0mm CLR
05:00 55.8 °F /  13.2 °C 36.3 °F /  2.4 °C 29.9in /  1012.9hPa NNE 2mph /  3.2km/h 5mph /  8.0km/h 48% 0in /  0.0mm CLR
05:05 55.6 °F /  13.1 °C 36.7 °F /  2.6 °C 29.9in /  1013.1hPa NE 2.9mph /  4.7km/h 4.6mph /  7.4km/h 49% 0in /  0.0mm CLR
05:10 55.6 °F /  13.1 °C 36.7 °F /  2.6 °C 29.9in /  1013.1hPa NE 2.9mph /  4.7km/h 3.5mph /  5.6km/h 49% 0in /  0.0mm CLR
05:15 55.8 °F /  13.2 °C 36.9 °F /  2.7 °C 29.9in /  1013.1hPa NE 2.9mph /  4.7km/h 2.3mph /  3.7km/h 49% 0in /  0.0mm CLR
05:20 55.8 °F /  13.2 °C 36.3 °F /  2.4 °C 29.9in /  1013.4hPa NE 1.8mph /  2.9km/h   48% 0in /  0.0mm CLR
05:25 55.8 °F /  13.2 °C 36.9 °F /  2.7 °C 29.9in /  1013.4hPa NE 1.8mph /  2.9km/h 2.3mph /  3.7km/h 49% 0in /  0.0mm CLR
05:30 55.8 °F /  13.2 °C 36.9 °F /  2.7 °C 29.9in /  1013.4hPa NE 1.4mph /  2.3km/h 2.3mph /  3.7km/h 49% 0in /  0.0mm CLR
05:35 55.9 °F /  13.3 °C 36.5 °F /  2.5 °C 29.9in /  1013.5hPa NNE 1.4mph /  2.3km/h 2.4mph /  3.9km/h 48% 0in /  0.0mm CLR
05:40 56.1 °F /  13.4 °C 36.7 °F /  2.6 °C 29.9in /  1013.5hPa West 1.8mph /  2.9km/h 3.5mph /  5.6km/h 48% 0in /  0.0mm CLR
05:45 56.3 °F /  13.5 °C 36.3 °F /  2.4 °C 29.9in /  1013.5hPa WNW 1.8mph /  2.9km/h 4.6mph /  7.4km/h 47% 0in /  0.0mm CLR
05:50 56.5 °F /  13.6 °C 36.5 °F /  2.5 °C 29.9in /  1013.8hPa NW 2mph /  3.2km/h 5.8mph /  9.3km/h 47% 0in /  0.0mm CLR
05:55 56.5 °F /  13.6 °C 36.5 °F /  2.5 °C 29.9in /  1013.8hPa NW 2mph /  3.2km/h 5.9mph /  9.5km/h 47% 0in /  0.0mm CLR
06:00 56.8 °F /  13.8 °C 36.9 °F /  2.7 °C 29.9in /  1013.8hPa WNW 5mph /  8.0km/h 9mph /  14.5km/h 47% 0in /  0.0mm CLR
06:05 57 °F /  13.9 °C 36.3 °F /  2.4 °C 29.9in /  1013.9hPa WNW 4.3mph /  6.9km/h 5.8mph /  9.3km/h 46% 0in /  0.0mm CLR
06:10 56.8 °F /  13.8 °C 36.9 °F /  2.7 °C 29.9in /  1013.9hPa WNW 4.3mph /  6.9km/h 5.8mph /  9.3km/h 47% 0in /  0.0mm CLR
06:15 56.5 °F /  13.6 °C 37 °F /  2.8 °C 29.9in /  1013.9hPa NW 4.3mph /  6.9km/h 6.9mph /  11.1km/h 48% 0in /  0.0mm CLR
06:20 55.8 °F /  13.2 °C 36.9 °F /  2.7 °C 29.9in /  1014.1hPa NW 4.3mph /  6.9km/h 8.1mph /  13.0km/h 49% 0in /  0.0mm CLR
06:25 55.8 °F /  13.2 °C 36.9 °F /  2.7 °C 29.9in /  1014.1hPa NNW 4.3mph /  6.9km/h 10.4mph /  16.7km/h 49% 0in /  0.0mm CLR
06:30 55.9 °F /  13.3 °C 37 °F /  2.8 °C 29.9in /  1014.1hPa NW 6.9mph /  11.1km/h 11.5mph /  18.5km/h 49% 0in /  0.0mm CLR
06:35 56.3 °F /  13.5 °C 36.9 °F /  2.7 °C 30in /  1014.2hPa WNW 6.9mph /  11.1km/h 12.7mph /  20.4km/h 48% 0in /  0.0mm CLR
06:40 56.5 °F /  13.6 °C 37 °F /  2.8 °C 30in /  1014.2hPa WNW 8.5mph /  13.7km/h 11.5mph /  18.5km/h 48% 0in /  0.0mm CLR
06:45 56.5 °F /  13.6 °C 37 °F /  2.8 °C 30in /  1014.2hPa WNW 8.5mph /  13.7km/h 11.5mph /  18.5km/h 48% 0in /  0.0mm CLR
06:50 56.5 °F /  13.6 °C 37 °F /  2.8 °C 30in /  1014.4hPa NNW 8.1mph /  13.0km/h 11.5mph /  18.5km/h 48% 0in /  0.0mm CLR
06:55 56.5 °F /  13.6 °C 37 °F /  2.8 °C 30in /  1014.4hPa NW 8.1mph /  13.0km/h 8.5mph /  13.7km/h 48% 0in /  0.0mm CLR
07:00 56.3 °F /  13.5 °C 36.9 °F /  2.7 °C 30in /  1014.4hPa NW 7mph /  11.3km/h 13mph /  20.9km/h 48% 0in /  0.0mm CLR
07:05 56.1 °F /  13.4 °C 36.7 °F /  2.6 °C 30in /  1014.6hPa WNW 6.9mph /  11.1km/h 10.4mph /  16.7km/h 48% 0in /  0.0mm CLR
07:10 56.1 °F /  13.4 °C 36.7 °F /  2.6 °C 30in /  1014.6hPa NW 6.2mph /  10.0km/h 8.1mph /  13.0km/h 48% 0in /  0.0mm CLR
07:15 55.9 °F /  13.3 °C 37 °F /  2.8 °C 30in /  1014.6hPa WNW 6.2mph /  10.0km/h 6.2mph /  10.0km/h 49% 0in /  0.0mm CLR
07:20 55.9 °F /  13.3 °C 37 °F /  2.8 °C 30in /  1014.8hPa WNW 4.7mph /  7.6km/h 8.1mph /  13.0km/h 49% 0in /  0.0mm CLR
07:25 55.8 °F /  13.2 °C 36.9 °F /  2.7 °C 30in /  1014.8hPa WNW 4.7mph /  7.6km/h 6.9mph /  11.1km/h 49% 0in /  0.0mm CLR
07:30 55.8 °F /  13.2 °C 36.9 °F /  2.7 °C 30in /  1014.8hPa WNW 4.7mph /  7.6km/h 5.8mph /  9.3km/h 49% 0in /  0.0mm CLR
07:35 55.6 °F /  13.1 °C 36.7 °F /  2.6 °C 30in /  1014.8hPa NW 4.7mph /  7.6km/h 4.6mph /  7.4km/h 49% 0in /  0.0mm CLR
07:40 55.6 °F /  13.1 °C 37.2 °F /  2.9 °C 30in /  1014.8hPa WNW 3.6mph /  5.8km/h 4.6mph /  7.4km/h 50% 0in /  0.0mm CLR
07:45 55.4 °F /  13.0 °C 37 °F /  2.8 °C 30in /  1014.8hPa WNW 3.6mph /  5.8km/h 6.9mph /  11.1km/h 50% 0in /  0.0mm CLR
07:50 55.2 °F /  12.9 °C 36.9 °F /  2.7 °C 30in /  1015.0hPa NW 4.3mph /  6.9km/h 6.9mph /  11.1km/h 50% 0in /  0.0mm CLR
07:55 55.2 °F /  12.9 °C 36.9 °F /  2.7 °C 30in /  1015.0hPa WNW 4.3mph /  6.9km/h 4.6mph /  7.4km/h 50% 0in /  0.0mm CLR
08:00 55.2 °F /  12.9 °C 36.9 °F /  2.7 °C 30in /  1015.0hPa WNW 3mph /  4.8km/h 5mph /  8.0km/h 50% 0in /  0.0mm CLR
08:05 55.2 °F /  12.9 °C 36.9 °F /  2.7 °C 30in /  1015.3hPa WNW 3.6mph /  5.8km/h 1.2mph /  1.9km/h 50% 0in /  0.0mm CLR
08:10 55.2 °F /  12.9 °C 36.9 °F /  2.7 °C 30in /  1015.3hPa WNW 1.4mph /  2.3km/h 4.6mph /  7.4km/h 50% 0in /  0.0mm CLR
08:15 55.2 °F /  12.9 °C 36.9 °F /  2.7 °C 30in /  1015.3hPa WNW 1.4mph /  2.3km/h 2.3mph /  3.7km/h 50% 0in /  0.0mm CLR
08:20 55.4 °F /  13.0 °C 37 °F /  2.8 °C 30in /  1015.6hPa WNW 2mph /  3.2km/h 2.3mph /  3.7km/h 50% 0in /  0.0mm CLR
08:25 55.6 °F /  13.1 °C 37.2 °F /  2.9 °C 30in /  1015.6hPa SSW 2mph /  3.2km/h 6.4mph /  10.3km/h 50% 0in /  0.0mm CLR
08:30 55.6 °F /  13.1 °C 36.7 °F /  2.6 °C 30in /  1015.6hPa SW 2.9mph /  4.7km/h 5.8mph /  9.3km/h 49% 0in /  0.0mm CLR
08:35 55.6 °F /  13.1 °C 36.7 °F /  2.6 °C 30in /  1015.9hPa WSW 2.9mph /  4.7km/h 6.9mph /  11.1km/h 49% 0in /  0.0mm CLR
08:40 55.6 °F /  13.1 °C 36.7 °F /  2.6 °C 30in /  1015.9hPa WSW 4mph /  6.4km/h 5.8mph /  9.3km/h 49% 0in /  0.0mm CLR
08:45 55.8 °F /  13.2 °C 36.9 °F /  2.7 °C 30in /  1015.9hPa West 4mph /  6.4km/h 5.8mph /  9.3km/h 49% 0in /  0.0mm CLR
08:50 55.8 °F /  13.2 °C 36.9 °F /  2.7 °C 30in /  1016.1hPa West 3.6mph /  5.8km/h 4.6mph /  7.4km/h 49% 0in /  0.0mm CLR
08:55 55.8 °F /  13.2 °C 36.9 °F /  2.7 °C 30in /  1016.1hPa West 3.6mph /  5.8km/h 4.6mph /  7.4km/h 49% 0in /  0.0mm CLR
09:00 55.8 °F /  13.2 °C 36.9 °F /  2.7 °C 30in /  1016.1hPa West 3mph /  4.8km/h 5mph /  8.0km/h 49% 0in /  0.0mm CLR
09:05 55.8 °F /  13.2 °C 36.3 °F /  2.4 °C 30in /  1016.5hPa West 3.1mph /  5.0km/h 2.3mph /  3.7km/h 48% 0in /  0.0mm CLR
09:10 55.9 °F /  13.3 °C 36.5 °F /  2.5 °C 30in /  1016.5hPa WNW 1.8mph /  2.9km/h 6.9mph /  11.1km/h 48% 0in /  0.0mm CLR
09:15 55.9 °F /  13.3 °C 37 °F /  2.8 °C 30in /  1016.5hPa West 1.8mph /  2.9km/h 2.3mph /  3.7km/h 49% 0in /  0.0mm CLR
09:20 55.9 °F /  13.3 °C 36.5 °F /  2.5 °C 30in /  1016.7hPa WNW 2.4mph /  3.9km/h   48% 0in /  0.0mm CLR
09:25 55.9 °F /  13.3 °C 36.5 °F /  2.5 °C 30in /  1016.7hPa SW 2.4mph /  3.9km/h 8.1mph /  13.0km/h 48% 0in /  0.0mm CLR
09:30 56.1 °F /  13.4 °C 36.7 °F /  2.6 °C 30in /  1016.7hPa WNW 3.1mph /  5.0km/h 8.1mph /  13.0km/h 48% 0in /  0.0mm CLR
09:35 56.1 °F /  13.4 °C 36.7 °F /  2.6 °C 30in /  1016.9hPa West 3.1mph /  5.0km/h 5.8mph /  9.3km/h 48% 0in /  0.0mm CLR
09:40 56.3 °F /  13.5 °C 36.3 °F /  2.4 °C 30in /  1016.9hPa West 5.9mph /  9.5km/h 10.4mph /  16.7km/h 47% 0in /  0.0mm CLR
09:45 56.5 °F /  13.6 °C 36.5 °F /  2.5 °C 30in /  1016.9hPa West 5.9mph /  9.5km/h 10.4mph /  16.7km/h 47% 0in /  0.0mm CLR
09:50 56.7 °F /  13.7 °C 36.1 °F /  2.3 °C 30in /  1016.8hPa NW 6.9mph /  11.1km/h 12.7mph /  20.4km/h 46% 0in /  0.0mm CLR
09:55 57 °F /  13.9 °C 36 °F /  2.2 °C 30in /  1016.8hPa West 6.9mph /  11.1km/h 12.7mph /  20.4km/h 45% 0in /  0.0mm CLR
10:00 57.4 °F /  14.1 °C 36.1 °F /  2.3 °C 30in /  1016.8hPa WNW 8mph /  12.9km/h 17mph /  27.4km/h 45% 0in /  0.0mm CLR
10:05 57.7 °F /  14.3 °C 36 °F /  2.2 °C 30in /  1016.8hPa West 8.1mph /  13.0km/h 13.8mph /  22.2km/h 44% 0in /  0.0mm CLR
10:10 57.9 °F /  14.4 °C 35.4 °F /  1.9 °C 30in /  1016.8hPa WNW 9.2mph /  14.8km/h 15.9mph /  25.6km/h 43% 0in /  0.0mm CLR
10:15 58.5 °F /  14.7 °C 36 °F /  2.2 °C 30in /  1016.8hPa NW 9.2mph /  14.8km/h 12.7mph /  20.4km/h 43% 0in /  0.0mm CLR
10:20 58.8 °F /  14.9 °C 36.3 °F /  2.4 °C 30in /  1016.8hPa West 9.7mph /  15.6km/h 18.4mph /  29.6km/h 43% 0in /  0.0mm CLR
10:25 58.8 °F /  14.9 °C 35.8 °F /  2.1 °C 30in /  1016.8hPa West 9.7mph /  15.6km/h 16.1mph /  25.9km/h 42% 0in /  0.0mm CLR
10:30 59.4 °F /  15.2 °C 36.1 °F /  2.3 °C 30in /  1016.8hPa West 10mph /  16.1km/h 15mph /  24.1km/h 42% 0in /  0.0mm CLR
10:35 59.4 °F /  15.2 °C 35.6 °F /  2.0 °C 30in /  1016.7hPa West 10mph /  16.1km/h 17.3mph /  27.8km/h 41% 0in /  0.0mm CLR
10:40 59.5 °F /  15.3 °C 35.8 °F /  2.1 °C 30in /  1016.7hPa WNW 10.2mph /  16.4km/h 13.8mph /  22.2km/h 41% 0in /  0.0mm CLR
10:45 59.5 °F /  15.3 °C 35.8 °F /  2.1 °C 30in /  1016.7hPa WSW 10.2mph /  16.4km/h 17.3mph /  27.8km/h 41% 0in /  0.0mm CLR
10:50 59.5 °F /  15.3 °C 35.8 °F /  2.1 °C 30in /  1016.7hPa West 11.2mph /  18.0km/h 13.8mph /  22.2km/h 41% 0in /  0.0mm CLR
10:55 59.7 °F /  15.4 °C 35.2 °F /  1.8 °C 30in /  1016.7hPa NW 11.2mph /  18.0km/h 17.3mph /  27.8km/h 40% 0in /  0.0mm CLR
11:00 60.1 °F /  15.6 °C 35.6 °F /  2.0 °C 30in /  1016.7hPa WNW 9mph /  14.5km/h 13mph /  20.9km/h 40% 0in /  0.0mm CLR
11:05 60.1 °F /  15.6 °C 35.8 °F /  2.1 °C 30in /  1016.5hPa North 9.2mph /  14.8km/h 11.5mph /  18.5km/h 40% 0in /  0.0mm CLR
11:10 60.3 °F /  15.7 °C 35.8 °F /  2.1 °C 30in /  1016.5hPa WNW 8.7mph /  14.0km/h 10.7mph /  17.2km/h 40% 0in /  0.0mm CLR
11:15 60.3 °F /  15.7 °C 35.2 °F /  1.8 °C 30in /  1016.5hPa NW 8.7mph /  14.0km/h 11.5mph /  18.5km/h 39% 0in /  0.0mm CLR
11:20 60.4 °F /  15.8 °C 35.2 °F /  1.8 °C 30in /  1016.5hPa WNW 8.5mph /  13.7km/h 13.8mph /  22.2km/h 39% 0in /  0.0mm CLR
11:25 60.6 °F /  15.9 °C 34.9 °F /  1.6 °C 30in /  1016.5hPa WNW 8.5mph /  13.7km/h 14mph /  22.5km/h 38% 0in /  0.0mm CLR
11:30 60.6 °F /  15.9 °C 34.9 °F /  1.6 °C 30in /  1016.5hPa NNW 10.2mph /  16.4km/h 11.5mph /  18.5km/h 38% 0in /  0.0mm CLR
11:35 60.8 °F /  16.0 °C 35.1 °F /  1.7 °C 30in /  1016.5hPa NNW 10.2mph /  16.4km/h 9.2mph /  14.8km/h 38% 0in /  0.0mm CLR
11:40 61.2 °F /  16.2 °C 35.2 °F /  1.8 °C 30in /  1016.5hPa WNW 6.9mph /  11.1km/h 12.7mph /  20.4km/h 38% 0in /  0.0mm CLR
11:45 61.3 °F /  16.3 °C 34.9 °F /  1.6 °C 30in /  1016.5hPa SSW 6.9mph /  11.1km/h 12.7mph /  20.4km/h 37% 0in /  0.0mm CLR
11:50 61.5 °F /  16.4 °C 35.1 °F /  1.7 °C 30in /  1016.3hPa West 7.6mph /  12.2km/h 11.5mph /  18.5km/h 37% 0in /  0.0mm CLR
11:55 61.5 °F /  16.4 °C 35.1 °F /  1.7 °C 30in /  1016.3hPa NW 7.6mph /  12.2km/h 11.5mph /  18.5km/h 37% 0in /  0.0mm CLR
12:00 61.5 °F /  16.4 °C 35.1 °F /  1.7 °C 30in /  1016.3hPa NW 7mph /  11.3km/h 12mph /  19.3km/h 37% 0in /  0.0mm CLR
12:05 61.7 °F /  16.5 °C 34.5 °F /  1.4 °C 30in /  1015.9hPa WSW 6.4mph /  10.3km/h 15mph /  24.1km/h 36% 0in /  0.0mm CLR
12:10 61.5 °F /  16.4 °C 34.3 °F /  1.3 °C 30in /  1015.9hPa SW 5.4mph /  8.7km/h 10.4mph /  16.7km/h 36% 0in /  0.0mm CLR
12:15 61.9 °F /  16.6 °C 34.5 °F /  1.4 °C 30in /  1015.9hPa WNW 5.4mph /  8.7km/h 8.1mph /  13.0km/h 36% 0in /  0.0mm CLR
12:20 62.1 °F /  16.7 °C 34.9 °F /  1.6 °C 30in /  1015.7hPa West 4mph /  6.4km/h 4.6mph /  7.4km/h 36% 0in /  0.0mm CLR
12:25 62.4 °F /  16.9 °C 34.3 °F /  1.3 °C 30in /  1015.7hPa NNW 4mph /  6.4km/h 6.9mph /  11.1km/h 35% 0in /  0.0mm CLR
12:30 62.6 °F /  17.0 °C 34.5 °F /  1.4 °C 30in /  1015.7hPa SSW 4.3mph /  6.9km/h 9.2mph /  14.8km/h 35% 0in /  0.0mm CLR
12:35 62.8 °F /  17.1 °C 34.7 °F /  1.5 °C 30in /  1015.5hPa WSW 4.3mph /  6.9km/h 9.2mph /  14.8km/h 35% 0in /  0.0mm CLR
12:40 63 °F /  17.2 °C 34.9 °F /  1.6 °C 30in /  1015.5hPa West 5.4mph /  8.7km/h 9.7mph /  15.6km/h 35% 0in /  0.0mm CLR
12:45 63 °F /  17.2 °C 34.9 °F /  1.6 °C 30in /  1015.5hPa SW 5.4mph /  8.7km/h 9.2mph /  14.8km/h 35% 0in /  0.0mm CLR
12:50 63 °F /  17.2 °C 34.9 °F /  1.6 °C 30in /  1015.5hPa SW 6.4mph /  10.3km/h 6.9mph /  11.1km/h 35% 0in /  0.0mm CLR
12:55 63.3 °F /  17.4 °C 34.3 °F /  1.3 °C 30in /  1015.5hPa WNW 6.4mph /  10.3km/h 8.1mph /  13.0km/h 34% 0in /  0.0mm CLR
13:00 63.7 °F /  17.6 °C 34.7 °F /  1.5 °C 30in /  1015.5hPa West 5mph /  8.0km/h 7mph /  11.3km/h 34% 0in /  0.0mm CLR
13:05 63.7 °F /  17.6 °C 34 °F /  1.1 °C 30in /  1015.4hPa SW 4mph /  6.4km/h 9.2mph /  14.8km/h 33% 0in /  0.0mm CLR
13:10 63.9 °F /  17.7 °C 34.2 °F /  1.2 °C 30in /  1015.4hPa South 3.6mph /  5.8km/h 4.6mph /  7.4km/h 33% 0in /  0.0mm CLR
13:15 64.2 °F /  17.9 °C 34.5 °F /  1.4 °C 30in /  1015.4hPa South 3.6mph /  5.8km/h 6.9mph /  11.1km/h 33% 0in /  0.0mm CLR
13:20 64.2 °F /  17.9 °C 33.6 °F /  0.9 °C 30in /  1015.1hPa WSW 4.3mph /  6.9km/h 10.2mph /  16.4km/h 32% 0in /  0.0mm CLR
13:25 64 °F /  17.8 °C 32.7 °F /  0.4 °C 30in /  1015.1hPa SW 4.3mph /  6.9km/h 9.2mph /  14.8km/h 31% 0in /  0.0mm CLR
13:30 64 °F /  17.8 °C 32.7 °F /  0.4 °C 30in /  1015.1hPa WSW 7.4mph /  11.9km/h 8.1mph /  13.0km/h 31% 0in /  0.0mm CLR
13:35 64.2 °F /  17.9 °C 32.9 °F /  0.5 °C 30in /  1015.0hPa West 7.4mph /  11.9km/h 5.8mph /  9.3km/h 31% 0in /  0.0mm CLR
13:40 64.2 °F /  17.9 °C 32.2 °F /  0.1 °C 30in /  1015.0hPa West 5.2mph /  8.4km/h 8.1mph /  13.0km/h 30% 0in /  0.0mm CLR
13:45 64.6 °F /  18.1 °C 32.4 °F /  0.2 °C 30in /  1015.0hPa West 5.2mph /  8.4km/h 4.6mph /  7.4km/h 30% 0in /  0.0mm CLR
13:50 65.1 °F /  18.4 °C 32 °F /  0.0 °C 30in /  1014.6hPa NNW 3.1mph /  5.0km/h 6.9mph /  11.1km/h 29% 0in /  0.0mm CLR
13:55 65.5 °F /  18.6 °C 32.4 °F /  0.2 °C 30in /  1014.6hPa NNE 3.1mph /  5.0km/h 7.6mph /  12.2km/h 29% 0in /  0.0mm CLR
14:00 65.7 °F /  18.7 °C 32.5 °F /  0.3 °C 30in /  1014.6hPa NW 5mph /  8.0km/h 10mph /  16.1km/h 29% 0in /  0.0mm CLR
14:05 65.8 °F /  18.8 °C 30.9 °F /  -0.6 °C 30in /  1014.4hPa West 4mph /  6.4km/h 10.4mph /  16.7km/h 27% 0in /  0.0mm CLR
14:10 65.5 °F /  18.6 °C 30.6 °F /  -0.8 °C 30in /  1014.4hPa SW 4.7mph /  7.6km/h 9.2mph /  14.8km/h 27% 0in /  0.0mm CLR
14:15 65.5 °F /  18.6 °C 31.5 °F /  -0.3 °C 30in /  1014.4hPa South 4.7mph /  7.6km/h 5.8mph /  9.3km/h 28% 0in /  0.0mm CLR
14:20 65.7 °F /  18.7 °C 31.6 °F /  -0.2 °C 29.9in /  1014.0hPa West 5.2mph /  8.4km/h 4.6mph /  7.4km/h 28% 0in /  0.0mm CLR
14:25 66 °F /  18.9 °C 32 °F /  0.0 °C 29.9in /  1014.0hPa West 5.2mph /  8.4km/h 10.4mph /  16.7km/h 28% 0in /  0.0mm CLR
14:30 66.4 °F /  19.1 °C 32.4 °F /  0.2 °C 29.9in /  1014.0hPa West 5.2mph /  8.4km/h 12.7mph /  20.4km/h 28% 0in /  0.0mm CLR
14:35 66 °F /  18.9 °C 32 °F /  0.0 °C 29.9in /  1013.8hPa WNW 5.2mph /  8.4km/h 10.7mph /  17.2km/h 28% 0in /  0.0mm CLR
14:40 65.8 °F /  18.8 °C 31.8 °F /  -0.1 °C 29.9in /  1013.8hPa WSW 7.4mph /  11.9km/h 12.7mph /  20.4km/h 28% 0in /  0.0mm CLR
14:45 65.8 °F /  18.8 °C 31.8 °F /  -0.1 °C 29.9in /  1013.8hPa NW 7.4mph /  11.9km/h 8.1mph /  13.0km/h 28% 0in /  0.0mm CLR
14:50 66 °F /  18.9 °C 32 °F /  0.0 °C 29.9in /  1013.6hPa WNW 5.2mph /  8.4km/h 5.8mph /  9.3km/h 28% 0in /  0.0mm CLR
14:55 66.2 °F /  19.0 °C 32.2 °F /  0.1 °C 29.9in /  1013.6hPa WNW 5.2mph /  8.4km/h 9.2mph /  14.8km/h 28% 0in /  0.0mm CLR
15:00 66 °F /  18.9 °C 32 °F /  0.0 °C 29.9in /  1013.6hPa WNW 5mph /  8.0km/h 7mph /  11.3km/h 28% 0in /  0.0mm CLR
15:05 66.2 °F /  19.0 °C 33.1 °F /  0.6 °C 29.9in /  1013.4hPa South 4.7mph /  7.6km/h 5.8mph /  9.3km/h 29% 0in /  0.0mm CLR
15:10 66.7 °F /  19.3 °C 32.5 °F /  0.3 °C 29.9in /  1013.4hPa SW 4mph /  6.4km/h 9.2mph /  14.8km/h 28% 0in /  0.0mm CLR
15:15 66.9 °F /  19.4 °C 32.7 °F /  0.4 °C 29.9in /  1013.4hPa West 4mph /  6.4km/h 5.8mph /  9.3km/h 28% 0in /  0.0mm CLR
15:20 67.3 °F /  19.6 °C 33.1 °F /  0.6 °C 29.9in /  1013.2hPa SW 5.2mph /  8.4km/h 9.2mph /  14.8km/h 28% 0in /  0.0mm CLR
15:25 66.7 °F /  19.3 °C 32.5 °F /  0.3 °C 29.9in /  1013.2hPa SSE 5.2mph /  8.4km/h 2.4mph /  3.9km/h 28% 0in /  0.0mm CLR
15:30 66.9 °F /  19.4 °C 32.7 °F /  0.4 °C 29.9in /  1013.2hPa NE 4mph /  6.4km/h 2.3mph /  3.7km/h 28% 0in /  0.0mm CLR
15:35 67.3 °F /  19.6 °C 33.1 °F /  0.6 °C 29.9in /  1013.1hPa East 4mph /  6.4km/h 3.5mph /  5.6km/h 28% 0in /  0.0mm CLR
15:40 67.6 °F /  19.8 °C 32.4 °F /  0.2 °C 29.9in /  1013.1hPa SW 2mph /  3.2km/h 6.9mph /  11.1km/h 27% 0in /  0.0mm CLR
15:45 67.5 °F /  19.7 °C 32.4 °F /  0.2 °C 29.9in /  1013.1hPa East 2mph /  3.2km/h 6.9mph /  11.1km/h 27% 0in /  0.0mm CLR
15:50 67.5 °F /  19.7 °C 32.4 °F /  0.2 °C 29.9in /  1013.1hPa NE 4mph /  6.4km/h 10.4mph /  16.7km/h 27% 0in /  0.0mm CLR
15:55 67.1 °F /  19.5 °C 32 °F /  0.0 °C 29.9in /  1013.1hPa NW 4mph /  6.4km/h 6.9mph /  11.1km/h 27% 0in /  0.0mm CLR
16:00 66.9 °F /  19.4 °C 31.8 °F /  -0.1 °C 29.9in /  1013.1hPa NNW 5mph /  8.0km/h 8mph /  12.9km/h 27% 0in /  0.0mm CLR
16:05 66.7 °F /  19.3 °C 31.6 °F /  -0.2 °C 29.9in /  1013.1hPa WNW 4.3mph /  6.9km/h 8.1mph /  13.0km/h 27% 0in /  0.0mm CLR
16:10 66.9 °F /  19.4 °C 32.7 °F /  0.4 °C 29.9in /  1013.1hPa West 3.6mph /  5.8km/h 5.8mph /  9.3km/h 28% 0in /  0.0mm CLR
16:15 67.5 °F /  19.7 °C 33.3 °F /  0.7 °C 29.9in /  1013.1hPa SSW 3.6mph /  5.8km/h 6.9mph /  11.1km/h 28% 0in /  0.0mm CLR
16:20 67.5 °F /  19.7 °C 32.4 °F /  0.2 °C 29.9in /  1012.9hPa South 5.2mph /  8.4km/h 8.1mph /  13.0km/h 27% 0in /  0.0mm CLR
16:25 67.6 °F /  19.8 °C 32.4 °F /  0.2 °C 29.9in /  1012.9hPa SW 5.2mph /  8.4km/h 2.3mph /  3.7km/h 27% 0in /  0.0mm CLR
16:30 68 °F /  20.0 °C 31.8 °F /  -0.1 °C 29.9in /  1012.9hPa West 3.1mph /  5.0km/h 4.6mph /  7.4km/h 26% 0in /  0.0mm CLR
16:35 68.2 °F /  20.1 °C 32.9 °F /  0.5 °C 29.9in /  1013.0hPa NNE 3.1mph /  5.0km/h 3.5mph /  5.6km/h 27% 0in /  0.0mm CLR
16:40 68.4 °F /  20.2 °C 33.1 °F /  0.6 °C 29.9in /  1013.0hPa NNE 2.4mph /  3.9km/h 4.6mph /  7.4km/h 27% 0in /  0.0mm CLR
16:45 68.5 °F /  20.3 °C 33.3 °F /  0.7 °C 29.9in /  1013.0hPa ENE 2.4mph /  3.9km/h 6.9mph /  11.1km/h 27% 0in /  0.0mm CLR
16:50 68.7 °F /  20.4 °C 32.4 °F /  0.2 °C 29.9in /  1012.9hPa West 2.4mph /  3.9km/h 4.6mph /  7.4km/h 26% 0in /  0.0mm CLR
16:55 68.5 °F /  20.3 °C 32.4 °F /  0.2 °C 29.9in /  1012.9hPa NE 2.4mph /  3.9km/h 4.6mph /  7.4km/h 26% 0in /  0.0mm CLR
17:00 68.4 °F /  20.2 °C 32.2 °F /  0.1 °C 29.9in /  1012.9hPa ENE 3mph /  4.8km/h 6mph /  9.7km/h 26% 0in /  0.0mm CLR
17:05 67.8 °F /  19.9 °C 36.9 °F /  2.7 °C 29.9in /  1012.8hPa South 3.1mph /  5.0km/h 10.4mph /  16.7km/h 32% 0in /  0.0mm CLR
17:10 67.5 °F /  19.7 °C 37.2 °F /  2.9 °C 29.9in /  1012.8hPa South 5.9mph /  9.5km/h 14mph /  22.5km/h 33% 0in /  0.0mm CLR
17:15 66.9 °F /  19.4 °C 38.5 °F /  3.6 °C 29.9in /  1012.8hPa ESE 5.9mph /  9.5km/h 12.7mph /  20.4km/h 35% 0in /  0.0mm CLR
17:20 66.7 °F /  19.3 °C 38.8 °F /  3.8 °C 29.9in /  1012.9hPa South 9.2mph /  14.8km/h 13.8mph /  22.2km/h 36% 0in /  0.0mm CLR
17:25 66.4 °F /  19.1 °C 39.9 °F /  4.4 °C 29.9in /  1012.9hPa SSE 9.2mph /  14.8km/h 18.4mph /  29.6km/h 38% 0in /  0.0mm CLR
17:30 65.8 °F /  18.8 °C 40.3 °F /  4.6 °C 29.9in /  1012.9hPa South 11.2mph /  18.0km/h 12.7mph /  20.4km/h 39% 0in /  0.0mm CLR
17:35 65.7 °F /  18.7 °C 39.9 °F /  4.4 °C 29.9in /  1013.0hPa South 11.2mph /  18.0km/h 11.8mph /  19.0km/h 39% 0in /  0.0mm CLR
17:40 65.5 °F /  18.6 °C 40.5 °F /  4.7 °C 29.9in /  1013.0hPa SSE 10.7mph /  17.2km/h 17.3mph /  27.8km/h 40% 0in /  0.0mm CLR
17:45 65.1 °F /  18.4 °C 40.3 °F /  4.6 °C 29.9in /  1013.0hPa South 10.7mph /  17.2km/h 12.7mph /  20.4km/h 40% 0in /  0.0mm CLR
17:50 65.3 °F /  18.5 °C 39.7 °F /  4.3 °C 29.9in /  1013.1hPa SSE 9.2mph /  14.8km/h 9.2mph /  14.8km/h 39% 0in /  0.0mm CLR
17:55 65.3 °F /  18.5 °C 39.7 °F /  4.3 °C 29.9in /  1013.1hPa SSE 9.2mph /  14.8km/h 12.7mph /  20.4km/h 39% 0in /  0.0mm CLR
18:00 65.5 °F /  18.6 °C 40.5 °F /  4.7 °C 29.9in /  1013.1hPa South 7mph /  11.3km/h 15mph /  24.1km/h 40% 0in /  0.0mm CLR
18:05 65.1 °F /  18.4 °C 40.3 °F /  4.6 °C 29.9in /  1013.1hPa SE 6.9mph /  11.1km/h 12.7mph /  20.4km/h 40% 0in /  0.0mm CLR
18:10 64.9 °F /  18.3 °C 40.6 °F /  4.8 °C 29.9in /  1013.1hPa SSE 9.2mph /  14.8km/h 13.8mph /  22.2km/h 41% 0in /  0.0mm CLR
18:15 64.6 °F /  18.1 °C 41 °F /  5.0 °C 29.9in /  1013.1hPa South 9.2mph /  14.8km/h 12.3mph /  19.8km/h 42% 0in /  0.0mm CLR
18:20 64.6 °F /  18.1 °C 41 °F /  5.0 °C 29.9in /  1013.3hPa SSE 8.1mph /  13.0km/h 11.5mph /  18.5km/h 42% 0in /  0.0mm CLR
18:25 64 °F /  17.8 °C 41.2 °F /  5.1 °C 29.9in /  1013.3hPa South 8.1mph /  13.0km/h 12.7mph /  20.4km/h 43% 0in /  0.0mm CLR
18:30 63.9 °F /  17.7 °C 40.8 °F /  4.9 °C 29.9in /  1013.3hPa South 8.5mph /  13.7km/h 11.5mph /  18.5km/h 43% 0in /  0.0mm CLR
18:35 63.7 °F /  17.6 °C 41.4 °F /  5.2 °C 29.9in /  1013.4hPa SSW 8.5mph /  13.7km/h 10.4mph /  16.7km/h 44% 0in /  0.0mm CLR
18:40 63.3 °F /  17.4 °C 41 °F /  5.0 °C 29.9in /  1013.4hPa South 7.6mph /  12.2km/h 13.8mph /  22.2km/h 44% 0in /  0.0mm CLR
18:45 62.8 °F /  17.1 °C 40.5 °F /  4.7 °C 29.9in /  1013.4hPa South 7.6mph /  12.2km/h 9.2mph /  14.8km/h 44% 0in /  0.0mm CLR
18:50 62.8 °F /  17.1 °C 40.5 °F /  4.7 °C 29.9in /  1013.5hPa SSE 8.1mph /  13.0km/h 9.2mph /  14.8km/h 44% 0in /  0.0mm CLR
18:55 62.4 °F /  16.9 °C 40.3 °F /  4.6 °C 29.9in /  1013.5hPa SSE 8.1mph /  13.0km/h 15mph /  24.1km/h 44% 0in /  0.0mm CLR
19:00 62.2 °F /  16.8 °C 39.9 °F /  4.4 °C 29.9in /  1013.5hPa SSE 8mph /  12.9km/h 13mph /  20.9km/h 44% 0in /  0.0mm CLR
19:05 61.9 °F /  16.6 °C 40.3 °F /  4.6 °C 29.9in /  1013.7hPa South 8.1mph /  13.0km/h 10.4mph /  16.7km/h 45% 0in /  0.0mm CLR
19:10 61.7 °F /  16.5 °C 40.1 °F /  4.5 °C 29.9in /  1013.7hPa SSE 6.9mph /  11.1km/h 9.2mph /  14.8km/h 45% 0in /  0.0mm CLR
19:15 61.5 °F /  16.4 °C 40.5 °F /  4.7 °C 29.9in /  1013.7hPa SSE 6.9mph /  11.1km/h 6.9mph /  11.1km/h 46% 0in /  0.0mm CLR
19:20 61.5 °F /  16.4 °C 41.2 °F /  5.1 °C 29.9in /  1013.9hPa SSE 5.2mph /  8.4km/h 6.9mph /  11.1km/h 47% 0in /  0.0mm CLR
19:25 61.2 °F /  16.2 °C 41.4 °F /  5.2 °C 29.9in /  1013.9hPa South 5.2mph /  8.4km/h 9.2mph /  14.8km/h 48% 0in /  0.0mm CLR
19:30 61.2 °F /  16.2 °C 41.7 °F /  5.4 °C 29.9in /  1013.9hPa South 5.4mph /  8.7km/h 10.4mph /  16.7km/h 49% 0in /  0.0mm CLR
19:35 61 °F /  16.1 °C 41.7 °F /  5.4 °C 29.9in /  1014.1hPa SW 5.4mph /  8.7km/h 6.9mph /  11.1km/h 49% 0in /  0.0mm CLR
19:40 61 °F /  16.1 °C 41.7 °F /  5.4 °C 29.9in /  1014.1hPa South 5.4mph /  8.7km/h 6.2mph /  10.0km/h 49% 0in /  0.0mm CLR
19:45 60.8 °F /  16.0 °C 41.5 °F /  5.3 °C 29.9in /  1014.1hPa WSW 5.4mph /  8.7km/h 4.6mph /  7.4km/h 49% 0in /  0.0mm CLR
19:50 60.8 °F /  16.0 °C 41.5 °F /  5.3 °C 30in /  1014.5hPa WSW 3.6mph /  5.8km/h 3.5mph /  5.6km/h 49% 0in /  0.0mm CLR
19:55 60.8 °F /  16.0 °C 40.5 °F /  4.7 °C 30in /  1014.5hPa SW 3.6mph /  5.8km/h 4.6mph /  7.4km/h 47% 0in /  0.0mm CLR
20:00 60.6 °F /  15.9 °C 39.7 °F /  4.3 °C 30in /  1014.5hPa WSW 2mph /  3.2km/h 6mph /  9.7km/h 46% 0in /  0.0mm CLR
20:05 60.6 °F /  15.9 °C 39.7 °F /  4.3 °C 30in /  1014.7hPa SSW 2.9mph /  4.7km/h 4.6mph /  7.4km/h 46% 0in /  0.0mm CLR
20:10 60.6 °F /  15.9 °C 39.7 °F /  4.3 °C 30in /  1014.7hPa SSW 3.1mph /  5.0km/h 3.5mph /  5.6km/h 46% 0in /  0.0mm CLR
20:15 60.6 °F /  15.9 °C 40.8 °F /  4.9 °C 30in /  1014.7hPa SSW 3.1mph /  5.0km/h 2.3mph /  3.7km/h 48% 0in /  0.0mm CLR
20:20 60.4 °F /  15.8 °C 40.6 °F /  4.8 °C 30in /  1014.9hPa SSW 1.4mph /  2.3km/h 5.9mph /  9.5km/h 48% 0in /  0.0mm CLR
20:25 60.4 °F /  15.8 °C 39.6 °F /  4.2 °C 30in /  1014.9hPa SSW 1.4mph /  2.3km/h 8.1mph /  13.0km/h 46% 0in /  0.0mm CLR
20:30 60.4 °F /  15.8 °C 39.6 °F /  4.2 °C 30in /  1014.9hPa SW 4mph /  6.4km/h 4.6mph /  7.4km/h 46% 0in /  0.0mm CLR
20:35 60.4 °F /  15.8 °C 39.6 °F /  4.2 °C 30in /  1015.1hPa SW 4mph /  6.4km/h 4.7mph /  7.6km/h 46% 0in /  0.0mm CLR
20:40 60.3 °F /  15.7 °C 39.4 °F /  4.1 °C 30in /  1015.1hPa SW 2.9mph /  4.7km/h 4.6mph /  7.4km/h 46% 0in /  0.0mm CLR
20:45 60.3 °F /  15.7 °C 38.8 °F /  3.8 °C 30in /  1015.1hPa South 2.9mph /  4.7km/h 4.6mph /  7.4km/h 45% 0in /  0.0mm CLR
20:50 60.3 °F /  15.7 °C 38.8 °F /  3.8 °C 30in /  1015.1hPa South 3.1mph /  5.0km/h 2.3mph /  3.7km/h 45% 0in /  0.0mm CLR
20:55 60.1 °F /  15.6 °C 39.2 °F /  4.0 °C 30in /  1015.1hPa South 3.1mph /  5.0km/h   46% 0in /  0.0mm CLR
21:00 59.9 °F /  15.5 °C 40.1 °F /  4.5 °C 30in /  1015.1hPa Calm     48% 0in /  0.0mm CLR
21:05 59.5 °F /  15.3 °C 40.3 °F /  4.6 °C 30in /  1015.3hPa Calm     49% 0in /  0.0mm CLR
21:10 59.4 °F /  15.2 °C 40.3 °F /  4.6 °C 30in /  1015.3hPa Calm   5.8mph /  9.3km/h 49% 0in /  0.0mm CLR
21:15 58.8 °F /  14.9 °C 39.7 °F /  4.3 °C 30in /  1015.3hPa Calm   5.8mph /  9.3km/h 49% 0in /  0.0mm CLR
21:20 58.6 °F /  14.8 °C 39.9 °F /  4.4 °C 30in /  1015.4hPa NW 3.6mph /  5.8km/h 5.8mph /  9.3km/h 50% 0in /  0.0mm CLR
21:25 58.5 °F /  14.7 °C 39.9 °F /  4.4 °C 30in /  1015.4hPa WNW 3.6mph /  5.8km/h 4.6mph /  7.4km/h 50% 0in /  0.0mm CLR
21:30 58.3 °F /  14.6 °C 40.3 °F /  4.6 °C 30in /  1015.4hPa WNW 2.9mph /  4.7km/h   51% 0in /  0.0mm CLR
21:35 58.1 °F /  14.5 °C 40.1 °F /  4.5 °C 30in /  1015.5hPa WNW 2.9mph /  4.7km/h   51% 0in /  0.0mm CLR
21:40 57.9 °F /  14.4 °C 39.9 °F /  4.4 °C 30in /  1015.5hPa Calm   2.3mph /  3.7km/h 51% 0in /  0.0mm CLR
21:45 57.9 °F /  14.4 °C 39.9 °F /  4.4 °C 30in /  1015.5hPa Calm   2.3mph /  3.7km/h 51% 0in /  0.0mm CLR
21:50 57.9 °F /  14.4 °C 39.9 °F /  4.4 °C 30in /  1015.6hPa South 2mph /  3.2km/h 5.9mph /  9.5km/h 51% 0in /  0.0mm CLR
21:55 58.1 °F /  14.5 °C 39.6 °F /  4.2 °C 30in /  1015.6hPa South 2mph /  3.2km/h 5.8mph /  9.3km/h 50% 0in /  0.0mm CLR
22:00 58.3 °F /  14.6 °C 39.7 °F /  4.3 °C 30in /  1015.6hPa South 5mph /  8.0km/h 7mph /  11.3km/h 50% 0in /  0.0mm CLR
22:05 58.3 °F /  14.6 °C 39.7 °F /  4.3 °C 30in /  1015.8hPa South 4.3mph /  6.9km/h 5.9mph /  9.5km/h 50% 0in /  0.0mm CLR
22:10 58.3 °F /  14.6 °C 39.7 °F /  4.3 °C 30in /  1015.8hPa South 4mph /  6.4km/h 4.6mph /  7.4km/h 50% 0in /  0.0mm CLR
22:15 57.9 °F /  14.4 °C 39.4 °F /  4.1 °C 30in /  1015.8hPa South 4mph /  6.4km/h 5.8mph /  9.3km/h 50% 0in /  0.0mm CLR
22:20 57.7 °F /  14.3 °C 39.7 °F /  4.3 °C 30in /  1016.1hPa South 4mph /  6.4km/h 5.8mph /  9.3km/h 51% 0in /  0.0mm CLR
22:25 57.6 °F /  14.2 °C 39.6 °F /  4.2 °C 30in /  1016.1hPa SW 4mph /  6.4km/h 5.4mph /  8.7km/h 51% 0in /  0.0mm CLR
22:30 57.6 °F /  14.2 °C 39.6 °F /  4.2 °C 30in /  1016.1hPa SW 4.3mph /  6.9km/h 6.9mph /  11.1km/h 51% 0in /  0.0mm CLR
22:35 57.6 °F /  14.2 °C 39.6 °F /  4.2 °C 30in /  1016.3hPa SW 4.3mph /  6.9km/h 6.9mph /  11.1km/h 51% 0in /  0.0mm CLR
22:40 57.6 °F /  14.2 °C 40.1 °F /  4.5 °C 30in /  1016.3hPa WSW 4.7mph /  7.6km/h 8.1mph /  13.0km/h 52% 0in /  0.0mm CLR
22:45 57.6 °F /  14.2 °C 40.1 °F /  4.5 °C 30in /  1016.3hPa West 4.7mph /  7.6km/h 6.9mph /  11.1km/h 52% 0in /  0.0mm CLR
22:50 57.6 °F /  14.2 °C 40.1 °F /  4.5 °C 30in /  1016.3hPa SW 4.7mph /  7.6km/h 5.8mph /  9.3km/h 52% 0in /  0.0mm CLR
22:55 57.4 °F /  14.1 °C 39.9 °F /  4.4 °C 30in /  1016.3hPa WSW 4.7mph /  7.6km/h 4.7mph /  7.6km/h 52% 0in /  0.0mm CLR
23:00 57.4 °F /  14.1 °C 39.7 °F /  4.3 °C 30in /  1016.3hPa SW 3mph /  4.8km/h 6mph /  9.7km/h 52% 0in /  0.0mm CLR
23:05 56.8 °F /  13.8 °C 39.4 °F /  4.1 °C 30in /  1016.4hPa SE 3.6mph /  5.8km/h 4.6mph /  7.4km/h 52% 0in /  0.0mm CLR
23:10 56.7 °F /  13.7 °C 39.7 °F /  4.3 °C 30in /  1016.4hPa South 3.1mph /  5.0km/h 5.8mph /  9.3km/h 53% 0in /  0.0mm CLR
23:15 56.5 °F /  13.6 °C 39.9 °F /  4.4 °C 30in /  1016.4hPa SW 3.1mph /  5.0km/h 4.6mph /  7.4km/h 54% 0in /  0.0mm CLR
23:20 56.1 °F /  13.4 °C 40.3 °F /  4.6 °C 30in /  1016.5hPa SSW 4.3mph /  6.9km/h 5.8mph /  9.3km/h 55% 0in /  0.0mm CLR
23:25 56.1 °F /  13.4 °C 40.3 °F /  4.6 °C 30in /  1016.5hPa SW 4.3mph /  6.9km/h 5.4mph /  8.7km/h 55% 0in /  0.0mm CLR
23:30 55.9 °F /  13.3 °C 40.5 °F /  4.7 °C 30in /  1016.5hPa SSW 4.3mph /  6.9km/h 5.2mph /  8.4km/h 56% 0in /  0.0mm CLR
23:35 55.8 °F /  13.2 °C 40.3 °F /  4.6 °C 30in /  1016.5hPa South 4.3mph /  6.9km/h 6.9mph /  11.1km/h 56% 0in /  0.0mm CLR
23:40 55.8 °F /  13.2 °C 40.6 °F /  4.8 °C 30in /  1016.5hPa SSW 4.3mph /  6.9km/h 5.8mph /  9.3km/h 57% 0in /  0.0mm CLR
23:45 55.6 °F /  13.1 °C 40.6 °F /  4.8 °C 30in /  1016.5hPa SW 4.3mph /  6.9km/h 5.8mph /  9.3km/h 57% 0in /  0.0mm CLR
23:50 55.6 °F /  13.1 °C 40.6 °F /  4.8 °C 30in /  1016.7hPa SSW 4.3mph /  6.9km/h 4.6mph /  7.4km/h 57% 0in /  0.0mm CLR
23:55 55.2 °F /  12.9 °C 40.3 °F /  4.6 °C 30in /  1016.7hPa South 4.3mph /  6.9km/h 6.9mph /  11.1km/h 57% 0in /  0.0mm CLR
Murcia-Puente Tocinos, España
Compliments of Weather Underground - 2.75 mb

La estación de MeteoMurcia.com, publica sus datos en los siguientes proyectos:

Weather Underground PWS IMURCIAP2 Meteoclimatic www.awekas.at

W3Counter
Web Analytics